Time;durP1;ratioP1;P1;durP2;ratioP2;P2;SDS_P1;SDS_P2;PMS_P1;PMS_P2;Temp;Humidity;BMP_temperature;BMP_pressure;BME280_temperature;BME280_humidity;BME280_pressure;Samples;Min_cycle;Max_cycle;Signal;HPM_P1;HPM_P2
2022/10/10 00:00:08;;;;;;;;;;;17.50;99.90;;;;;;5057605;28;20343;-76
2022/10/10 00:02:33;;;;;;;;;;;17.50;99.90;;;;;;5075993;28;19912;-77
2022/10/10 00:04:59;;;;;;;;;;;17.40;99.90;;;;;;5077601;28;19970;-77
2022/10/10 00:07:25;;;;;;;;;;;17.30;99.90;;;;;;5076885;28;19970;-78
2022/10/10 00:09:51;;;;;;;;;;;17.40;99.90;;;;;;5071700;28;19984;-78
2022/10/10 00:12:20;;;;;;;;;;;17.30;99.90;;;;;;5070707;28;20373;-78
2022/10/10 00:14:46;;;;;;;;;;;17.30;99.90;;;;;;5072544;28;19963;-77
2022/10/10 00:17:11;;;;;;;;;;;17.40;99.90;;;;;;5070846;28;19917;-76
2022/10/10 00:19:37;;;;;;;;;;;17.30;99.90;;;;;;5070765;28;19940;-77
2022/10/10 00:22:03;;;;;;;;;;;17.30;99.90;;;;;;5069465;28;20400;-77
2022/10/10 00:24:30;;;;;;;;;;;17.30;99.90;;;;;;5068651;28;20331;-77
2022/10/10 00:26:55;;;;;;;;;;;17.20;99.90;;;;;;5070735;28;20369;-77
2022/10/10 00:29:21;;;;;;;;;;;17.20;99.90;;;;;;5069322;28;19999;-76
2022/10/10 00:31:49;;;;;;;;;;;17.20;99.90;;;;;;5070240;28;20362;-77
2022/10/10 00:34:15;;;;;;;;;;;17.20;99.90;;;;;;5068615;28;19997;-77
2022/10/10 00:36:41;;;;;;;;;;;17.20;99.90;;;;;;5053243;28;19920;-76
2022/10/10 00:39:06;;;;;;;;;;;17.20;99.90;;;;;;5087287;28;19916;-77
2022/10/10 00:41:32;;;;;;;;;;;17.30;99.90;;;;;;5070995;28;19912;-76
2022/10/10 00:44:02;;;;;;;;;;;17.30;99.90;;;;;;5070846;28;19944;-80
2022/10/10 00:46:28;;;;;;;;;;;17.30;99.90;;;;;;5072791;28;19919;-78
2022/10/10 00:48:53;;;;;;;;;;;17.30;99.90;;;;;;5069865;28;19917;-76
2022/10/10 00:51:19;;;;;;;;;;;17.30;99.90;;;;;;5067899;28;20343;-77
2022/10/10 00:53:46;;;;;;;;;;;17.20;99.90;;;;;;5071756;28;20328;-76
2022/10/10 00:56:12;;;;;;;;;;;17.20;99.90;;;;;;5077919;28;19913;-76
2022/10/10 00:58:43;;;;;;;;;;;17.20;99.90;;;;;;5077578;28;20071;-77
2022/10/10 01:01:09;;;;;;;;;;;17.30;99.90;;;;;;5077336;28;20002;-76
2022/10/10 01:03:34;;;;;;;;;;;17.20;99.90;;;;;;5059031;28;19927;-77
2022/10/10 01:06:00;;;;;;;;;;;17.20;99.90;;;;;;5079631;28;19912;-77
2022/10/10 01:08:26;;;;;;;;;;;17.20;99.90;;;;;;5076592;28;19921;-77
2022/10/10 01:10:52;;;;;;;;;;;17.20;99.90;;;;;;5072189;28;20007;-77
2022/10/10 01:13:30;;;;;;;;;;;17.20;99.90;;;;;;5073341;28;20002;-77
2022/10/10 01:15:56;;;;;;;;;;;17.20;99.90;;;;;;5057217;28;19912;-78
2022/10/10 01:18:40;;;;;;;;;;;17.10;99.90;;;;;;5073302;28;19974;-77
2022/10/10 01:21:24;;;;;;;;;;;17.00;99.90;;;;;;5074812;28;19984;-77
2022/10/10 01:24:08;;;;;;;;;;;17.10;99.90;;;;;;5081530;28;19935;-77
2022/10/10 01:26:40;;;;;;;;;;;17.10;99.90;;;;;;5064177;28;19919;-81
2022/10/10 01:29:29;;;;;;;;;;;17.00;99.90;;;;;;5080873;28;19908;-78
2022/10/10 01:31:57;;;;;;;;;;;17.00;99.90;;;;;;5082394;28;19975;-78
2022/10/10 01:34:32;;;;;;;;;;;17.00;99.90;;;;;;5069548;28;19938;-78
2022/10/10 01:37:00;;;;;;;;;;;17.00;99.90;;;;;;5073026;28;19920;-78
2022/10/10 01:39:32;;;;;;;;;;;17.00;99.90;;;;;;5070681;28;19916;-77
2022/10/10 01:42:05;;;;;;;;;;;16.90;99.90;;;;;;5072535;28;19947;-78
2022/10/10 01:44:30;;;;;;;;;;;16.90;99.90;;;;;;5074883;28;19912;-78
2022/10/10 01:46:57;;;;;;;;;;;16.90;99.90;;;;;;5055563;28;20031;-78
2022/10/10 01:49:24;;;;;;;;;;;16.80;99.90;;;;;;5072233;28;19913;-78
2022/10/10 01:51:52;;;;;;;;;;;16.70;99.90;;;;;;5072936;28;19974;-77
2022/10/10 01:54:21;;;;;;;;;;;16.70;99.90;;;;;;5073546;28;19912;-79
2022/10/10 01:57:02;;;;;;;;;;;16.60;99.90;;;;;;5075300;28;20007;-77
2022/10/10 01:59:43;;;;;;;;;;;16.70;99.90;;;;;;5091743;28;19916;-78
2022/10/10 02:02:20;;;;;;;;;;;16.70;99.90;;;;;;5075663;28;20396;-77
2022/10/10 02:04:57;;;;;;;;;;;16.70;99.90;;;;;;5086143;28;19923;-81
2022/10/10 02:07:25;;;;;;;;;;;16.60;99.90;;;;;;5084897;28;20440;-77
2022/10/10 02:09:52;;;;;;;;;;;16.60;99.90;;;;;;5070644;28;19967;-77
2022/10/10 02:12:19;;;;;;;;;;;16.60;99.90;;;;;;5067524;28;19942;-77
2022/10/10 02:14:50;;;;;;;;;;;16.50;99.90;;;;;;5068352;28;19916;-77
2022/10/10 02:17:16;;;;;;;;;;;16.50;99.90;;;;;;5068058;28;19923;-76
2022/10/10 02:19:44;;;;;;;;;;;16.40;99.90;;;;;;5052354;28;19916;-76
2022/10/10 02:22:10;;;;;;;;;;;16.40;99.90;;;;;;5077883;28;20011;-78
2022/10/10 02:24:36;;;;;;;;;;;16.40;99.90;;;;;;5061795;28;19920;-79
2022/10/10 02:27:04;;;;;;;;;;;16.40;99.90;;;;;;5061782;28;19912;-77
2022/10/10 02:29:32;;;;;;;;;;;16.40;99.90;;;;;;5078718;28;19912;-77
2022/10/10 02:32:02;;;;;;;;;;;16.50;99.90;;;;;;5079433;28;19924;-77
2022/10/10 02:34:31;;;;;;;;;;;16.40;99.90;;;;;;5074150;28;19923;-77
2022/10/10 02:36:59;;;;;;;;;;;16.40;99.90;;;;;;5067606;28;19913;-77
2022/10/10 02:39:27;;;;;;;;;;;16.30;99.90;;;;;;5069296;28;19982;-77
2022/10/10 02:41:53;;;;;;;;;;;16.30;99.90;;;;;;5070998;28;19963;-78
2022/10/10 02:44:19;;;;;;;;;;;16.30;99.90;;;;;;5069948;28;20298;-77
2022/10/10 02:46:44;;;;;;;;;;;16.30;99.90;;;;;;5070784;28;20309;-76
2022/10/10 02:49:10;;;;;;;;;;;16.40;99.90;;;;;;5054771;28;19958;-77
2022/10/10 02:51:37;;;;;;;;;;;16.40;99.90;;;;;;5054326;28;19912;-77
2022/10/10 02:54:03;;;;;;;;;;;16.40;99.90;;;;;;5055667;28;19913;-77
2022/10/10 02:56:29;;;;;;;;;;;16.40;99.90;;;;;;5054626;28;19939;-78
2022/10/10 02:58:56;;;;;;;;;;;16.50;99.90;;;;;;5071238;28;20361;-77
2022/10/10 03:01:22;;;;;;;;;;;16.50;99.90;;;;;;5070269;28;19935;-78
2022/10/10 03:03:48;;;;;;;;;;;16.60;99.90;;;;;;5076241;28;19912;-77
2022/10/10 03:06:14;;;;;;;;;;;16.60;99.90;;;;;;5079673;28;19935;-79
2022/10/10 03:08:40;;;;;;;;;;;16.60;99.90;;;;;;5078502;28;19913;-77
2022/10/10 03:11:05;;;;;;;;;;;16.60;99.90;;;;;;5071986;28;20350;-78
2022/10/10 03:13:31;;;;;;;;;;;16.60;99.90;;;;;;5070626;28;20024;-76
2022/10/10 03:15:57;;;;;;;;;;;16.70;99.90;;;;;;5069166;28;19972;-77
2022/10/10 03:18:26;;;;;;;;;;;16.80;99.90;;;;;;5071048;28;20325;-79
2022/10/10 03:20:53;;;;;;;;;;;16.80;99.90;;;;;;5069417;28;19912;-77
2022/10/10 03:23:19;;;;;;;;;;;16.80;99.90;;;;;;5055420;28;19920;-77
2022/10/10 03:25:45;;;;;;;;;;;16.80;99.90;;;;;;5070460;28;19913;-77
2022/10/10 03:28:11;;;;;;;;;;;16.90;99.90;;;;;;5052957;28;20348;-77
2022/10/10 03:30:38;;;;;;;;;;;16.90;99.90;;;;;;5058324;28;19912;-78
2022/10/10 03:33:04;;;;;;;;;;;16.90;99.90;;;;;;5057639;28;19916;-78
2022/10/10 03:35:30;;;;;;;;;;;16.90;99.90;;;;;;5070564;28;19992;-77
2022/10/10 03:37:56;;;;;;;;;;;16.90;99.90;;;;;;5071349;28;20374;-77
2022/10/10 03:40:22;;;;;;;;;;;16.80;99.90;;;;;;5072016;28;20451;-78
2022/10/10 03:42:48;;;;;;;;;;;16.80;99.90;;;;;;5071359;28;19921;-79
2022/10/10 03:45:14;;;;;;;;;;;16.80;99.90;;;;;;5086007;28;20540;-77
2022/10/10 03:47:39;;;;;;;;;;;16.80;99.90;;;;;;5056621;28;19912;-77
2022/10/10 03:50:05;;;;;;;;;;;16.80;99.90;;;;;;5060378;28;19928;-77
2022/10/10 03:52:31;;;;;;;;;;;16.80;99.90;;;;;;5075368;28;20384;-76
2022/10/10 03:54:57;;;;;;;;;;;16.90;99.90;;;;;;5071607;28;19916;-77
2022/10/10 03:57:25;;;;;;;;;;;17.00;99.90;;;;;;5073750;28;20346;-77
2022/10/10 03:59:51;;;;;;;;;;;17.00;99.90;;;;;;5073648;28;19920;-77
2022/10/10 04:02:17;;;;;;;;;;;17.00;99.90;;;;;;5053801;28;19961;-77
2022/10/10 04:04:59;;;;;;;;;;;17.10;99.90;;;;;;5072537;28;20338;-77
2022/10/10 04:07:25;;;;;;;;;;;17.20;99.90;;;;;;5061224;28;20465;-77
2022/10/10 04:09:55;;;;;;;;;;;17.00;99.90;;;;;;5061293;28;19912;-78
2022/10/10 04:12:41;;;;;;;;;;;17.00;99.90;;;;;;5069010;28;20042;-77
2022/10/10 04:15:07;;;;;;;;;;;16.90;99.90;;;;;;5073253;28;19913;-77
2022/10/10 04:17:33;;;;;;;;;;;16.90;99.90;;;;;;5055116;28;19962;-77
2022/10/10 04:19:58;;;;;;;;;;;16.90;99.90;;;;;;5071083;28;20105;-77
2022/10/10 04:22:24;;;;;;;;;;;16.80;99.90;;;;;;5054232;28;19917;-77
2022/10/10 04:24:49;;;;;;;;;;;16.80;99.90;;;;;;5071411;28;19912;-77
2022/10/10 04:27:15;;;;;;;;;;;16.80;99.90;;;;;;5071561;28;19920;-77
2022/10/10 04:29:41;;;;;;;;;;;16.70;99.90;;;;;;5072928;28;20395;-77
2022/10/10 04:32:07;;;;;;;;;;;16.70;99.90;;;;;;5075195;28;20416;-77
2022/10/10 04:34:32;;;;;;;;;;;16.70;99.90;;;;;;5056902;28;19912;-77
2022/10/10 04:36:58;;;;;;;;;;;16.70;99.90;;;;;;5070541;28;19997;-76
2022/10/10 04:39:24;;;;;;;;;;;16.70;99.90;;;;;;5085659;28;20673;-77
2022/10/10 04:41:50;;;;;;;;;;;16.80;99.90;;;;;;5085055;28;20451;-78
2022/10/10 04:44:17;;;;;;;;;;;16.80;99.90;;;;;;5090559;28;19952;-77
2022/10/10 04:46:42;;;;;;;;;;;16.70;99.90;;;;;;5062131;28;19920;-78
2022/10/10 04:49:08;;;;;;;;;;;16.60;99.90;;;;;;5077058;28;19916;-77
2022/10/10 04:51:34;;;;;;;;;;;16.50;99.90;;;;;;5056543;28;19917;-78
2022/10/10 04:54:00;;;;;;;;;;;16.50;99.90;;;;;;5077764;28;20293;-78
2022/10/10 04:56:25;;;;;;;;;;;16.50;99.90;;;;;;5060829;28;20235;-78
2022/10/10 04:58:51;;;;;;;;;;;16.50;99.90;;;;;;5091452;28;19916;-78
2022/10/10 05:01:17;;;;;;;;;;;16.50;99.90;;;;;;5075637;28;19971;-78
2022/10/10 05:03:42;;;;;;;;;;;16.60;99.90;;;;;;5060987;28;19920;-81
2022/10/10 05:06:08;;;;;;;;;;;16.60;99.90;;;;;;5078624;28;19912;-79
2022/10/10 05:08:34;;;;;;;;;;;16.60;99.90;;;;;;5093192;28;19920;-78
2022/10/10 05:11:00;;;;;;;;;;;16.70;99.90;;;;;;5059030;28;20305;-78
2022/10/10 05:13:25;;;;;;;;;;;16.70;99.90;;;;;;5058878;28;19913;-78
2022/10/10 05:15:51;;;;;;;;;;;16.70;99.90;;;;;;5075267;28;20460;-78
2022/10/10 05:18:18;;;;;;;;;;;16.70;99.90;;;;;;5074974;28;19921;-78
2022/10/10 05:20:46;;;;;;;;;;;16.70;99.90;;;;;;5074279;28;20007;-78
2022/10/10 05:23:12;;;;;;;;;;;16.70;99.90;;;;;;5073216;28;19936;-78
2022/10/10 05:25:38;;;;;;;;;;;16.70;99.90;;;;;;5074614;28;19920;-78
2022/10/10 05:28:04;;;;;;;;;;;16.70;99.90;;;;;;5075749;28;19920;-77
2022/10/10 05:30:30;;;;;;;;;;;16.70;99.90;;;;;;5049900;28;19916;-78
2022/10/10 05:32:55;;;;;;;;;;;16.80;99.90;;;;;;5066673;28;20316;-77
2022/10/10 05:35:21;;;;;;;;;;;16.70;99.90;;;;;;5065782;28;20029;-77
2022/10/10 05:37:47;;;;;;;;;;;16.60;99.90;;;;;;5073880;28;19913;-77
2022/10/10 05:40:12;;;;;;;;;;;16.50;99.90;;;;;;5074989;28;20298;-76
2022/10/10 05:42:38;;;;;;;;;;;16.40;99.90;;;;;;5074301;28;20478;-77
2022/10/10 05:45:04;;;;;;;;;;;16.40;99.90;;;;;;5074188;28;19913;-77
2022/10/10 05:47:30;;;;;;;;;;;16.50;99.90;;;;;;5075098;28;19908;-77
2022/10/10 05:49:55;;;;;;;;;;;16.40;99.90;;;;;;5076082;28;20389;-78
2022/10/10 05:52:21;;;;;;;;;;;16.50;99.90;;;;;;5051954;28;19919;-74
2022/10/10 05:54:46;;;;;;;;;;;16.60;99.90;;;;;;5064697;28;19916;-73
2022/10/10 05:57:12;;;;;;;;;;;16.60;99.90;;;;;;5046596;28;19917;-74
2022/10/10 05:59:38;;;;;;;;;;;16.70;99.90;;;;;;5048331;28;20030;-75
2022/10/10 06:02:03;;;;;;;;;;;16.80;99.90;;;;;;5066311;28;19921;-74
2022/10/10 06:04:29;;;;;;;;;;;16.90;99.90;;;;;;5066067;28;19919;-74
2022/10/10 06:06:54;;;;;;;;;;;16.90;99.90;;;;;;5066259;28;20034;-74
2022/10/10 06:09:20;;;;;;;;;;;17.00;99.90;;;;;;5082432;28;19920;-72
2022/10/10 06:11:46;;;;;;;;;;;17.10;99.90;;;;;;5064603;28;20382;-73
2022/10/10 06:14:11;;;;;;;;;;;17.20;99.90;;;;;;5065088;28;19913;-73
2022/10/10 06:16:38;;;;;;;;;;;17.10;99.90;;;;;;5066237;28;20370;-73
2022/10/10 06:19:04;;;;;;;;;;;16.90;99.90;;;;;;5066793;28;19924;-74
2022/10/10 06:21:30;;;;;;;;;;;16.90;99.90;;;;;;5067001;28;19915;-73
2022/10/10 06:23:56;;;;;;;;;;;16.80;99.90;;;;;;5068306;28;19916;-75
2022/10/10 06:26:21;;;;;;;;;;;16.90;99.90;;;;;;5054479;28;19934;-73
2022/10/10 06:28:49;;;;;;;;;;;16.90;99.90;;;;;;5070684;28;19921;-75
2022/10/10 06:31:15;;;;;;;;;;;16.90;99.90;;;;;;5056021;28;20015;-73
2022/10/10 06:33:44;;;;;;;;;;;16.90;99.90;;;;;;5070452;28;19968;-72
2022/10/10 06:36:10;;;;;;;;;;;17.00;99.90;;;;;;5071960;28;19920;-73
2022/10/10 06:38:37;;;;;;;;;;;17.00;99.90;;;;;;5072475;28;19912;-73
2022/10/10 06:41:04;;;;;;;;;;;17.00;99.90;;;;;;5071989;28;19913;-73
2022/10/10 06:43:30;;;;;;;;;;;17.10;99.90;;;;;;5072259;28;19913;-73
2022/10/10 06:45:55;;;;;;;;;;;17.10;99.90;;;;;;5072689;28;19908;-73
2022/10/10 06:48:21;;;;;;;;;;;17.10;99.90;;;;;;5072045;28;19913;-72
2022/10/10 06:50:57;;;;;;;;;;;17.10;99.90;;;;;;5071246;28;19955;-73
2022/10/10 06:53:23;;;;;;;;;;;17.20;99.90;;;;;;5070072;28;19912;-73
2022/10/10 06:55:49;;;;;;;;;;;17.20;99.90;;;;;;5071992;28;19924;-73
2022/10/10 06:58:14;;;;;;;;;;;17.20;99.90;;;;;;5051174;28;19917;-76
2022/10/10 07:00:40;;;;;;;;;;;17.20;99.90;;;;;;5053029;28;19923;-73
2022/10/10 07:03:06;;;;;;;;;;;17.20;99.90;;;;;;5069986;28;19916;-72
2022/10/10 07:05:31;;;;;;;;;;;17.20;99.90;;;;;;5073950;28;19912;-73
2022/10/10 07:07:57;;;;;;;;;;;17.20;99.90;;;;;;5064939;28;20402;-76
2022/10/10 07:10:23;;;;;;;;;;;17.30;99.90;;;;;;5061832;28;19912;-73
2022/10/10 07:12:48;;;;;;;;;;;17.40;99.90;;;;;;5063536;28;20250;-72
2022/10/10 07:15:14;;;;;;;;;;;17.40;99.90;;;;;;5058601;28;19982;-72
2022/10/10 07:17:40;;;;;;;;;;;17.50;99.90;;;;;;5064079;28;19919;-73
2022/10/10 07:20:06;;;;;;;;;;;17.50;99.90;;;;;;5053163;28;20571;-72
2022/10/10 07:22:31;;;;;;;;;;;17.50;99.90;;;;;;5063452;28;20452;-73
2022/10/10 07:24:57;;;;;;;;;;;17.50;99.90;;;;;;5066605;28;19912;-73
2022/10/10 07:27:23;;;;;;;;;;;17.60;99.90;;;;;;5069803;28;20007;-72
2022/10/10 07:29:48;;;;;;;;;;;17.70;99.90;;;;;;5070239;28;20350;-71
2022/10/10 07:32:14;;;;;;;;;;;17.70;99.90;;;;;;5063947;28;20401;-72
2022/10/10 07:34:40;;;;;;;;;;;17.60;99.90;;;;;;5071454;28;19909;-73
2022/10/10 07:37:05;;;;;;;;;;;17.70;99.90;;;;;;5070312;28;20385;-74
2022/10/10 07:39:31;;;;;;;;;;;17.70;99.90;;;;;;5072372;28;19925;-71
2022/10/10 07:41:57;;;;;;;;;;;17.80;99.90;;;;;;5076773;28;20356;-73
2022/10/10 07:44:22;;;;;;;;;;;17.90;99.90;;;;;;5072691;28;20000;-75
2022/10/10 07:46:48;;;;;;;;;;;17.90;99.90;;;;;;5072982;28;19915;-75
2022/10/10 07:49:14;;;;;;;;;;;18.00;99.90;;;;;;5056901;28;20107;-74
2022/10/10 07:51:40;;;;;;;;;;;18.00;99.90;;;;;;5056594;28;20366;-74
2022/10/10 07:54:05;;;;;;;;;;;18.00;99.90;;;;;;5055911;28;19913;-76
2022/10/10 07:56:31;;;;;;;;;;;18.00;99.90;;;;;;5079176;28;19920;-74
2022/10/10 07:58:57;;;;;;;;;;;18.00;99.90;;;;;;5072108;28;19912;-73
2022/10/10 08:01:22;;;;;;;;;;;18.00;99.90;;;;;;5071098;28;19960;-74
2022/10/10 08:03:48;;;;;;;;;;;18.20;99.90;;;;;;5071484;28;19912;-77
2022/10/10 08:06:15;;;;;;;;;;;18.40;99.90;;;;;;5075502;28;19919;-75
2022/10/10 08:08:42;;;;;;;;;;;18.60;99.90;;;;;;5075366;28;20007;-74
2022/10/10 08:11:08;;;;;;;;;;;18.70;99.90;;;;;;5058234;28;19930;-74
2022/10/10 08:13:34;;;;;;;;;;;18.80;99.90;;;;;;5076104;28;19936;-77
2022/10/10 08:16:00;;;;;;;;;;;19.00;99.90;;;;;;5073803;28;20318;-76
2022/10/10 08:18:26;;;;;;;;;;;19.10;99.90;;;;;;5072729;28;19919;-75
2022/10/10 08:21:01;;;;;;;;;;;19.20;99.90;;;;;;5075682;28;19917;-76
2022/10/10 08:23:27;;;;;;;;;;;19.20;99.90;;;;;;5087208;28;19920;-75
2022/10/10 08:25:53;;;;;;;;;;;19.20;99.90;;;;;;5075836;28;19933;-76
2022/10/10 08:28:19;;;;;;;;;;;19.20;99.90;;;;;;5076441;28;19919;-77
2022/10/10 08:30:44;;;;;;;;;;;19.20;99.90;;;;;;5057992;28;19912;-75
2022/10/10 08:33:10;;;;;;;;;;;19.30;99.90;;;;;;5082520;28;19908;-76
2022/10/10 08:35:36;;;;;;;;;;;19.30;99.90;;;;;;5076091;28;19939;-75
2022/10/10 08:38:02;;;;;;;;;;;19.30;99.90;;;;;;5075174;28;19909;-75
2022/10/10 08:40:28;;;;;;;;;;;19.40;99.90;;;;;;5075474;28;19917;-75
2022/10/10 08:42:58;;;;;;;;;;;19.60;99.90;;;;;;5076644;28;19909;-77
2022/10/10 08:45:25;;;;;;;;;;;19.70;99.90;;;;;;5075836;28;19973;-75
2022/10/10 08:48:01;;;;;;;;;;;19.90;99.90;;;;;;5077048;28;19996;-77
2022/10/10 08:50:36;;;;;;;;;;;20.10;99.90;;;;;;5080538;28;20398;-76
2022/10/10 08:53:05;;;;;;;;;;;20.20;99.90;;;;;;5058272;28;19908;-74
2022/10/10 08:55:40;;;;;;;;;;;20.40;99.90;;;;;;5076370;28;19917;-75
2022/10/10 08:58:05;;;;;;;;;;;20.40;99.90;;;;;;5077076;28;19913;-74
2022/10/10 09:00:37;;;;;;;;;;;20.40;99.90;;;;;;5078940;28;20262;-74
2022/10/10 09:03:03;;;;;;;;;;;20.50;99.90;;;;;;5076120;28;19908;-73
2022/10/10 09:05:29;;;;;;;;;;;20.60;99.90;;;;;;5075927;28;19935;-75
2022/10/10 09:07:58;;;;;;;;;;;20.80;99.90;;;;;;5057439;28;20347;-74
2022/10/10 09:10:33;;;;;;;;;;;20.80;99.90;;;;;;5075305;28;19920;-74
2022/10/10 09:13:20;;;;;;;;;;;20.90;99.90;;;;;;5073826;28;19909;-74
2022/10/10 09:16:18;;;;;;;;;;;21.00;99.90;;;;;;5075876;28;20431;-74
2022/10/10 09:19:00;;;;;;;;;;;21.20;99.90;;;;;;5042028;28;19909;-76
2022/10/10 09:21:28;;;;;;;;;;;21.20;99.90;;;;;;5073580;28;19916;-73
2022/10/10 09:23:54;;;;;;;;;;;21.20;99.90;;;;;;5079192;28;19934;-73
2022/10/10 09:26:27;;;;;;;;;;;21.10;99.90;;;;;;5077870;28;19912;-74
2022/10/10 09:28:56;;;;;;;;;;;21.20;99.90;;;;;;5059291;28;19970;-72
2022/10/10 09:31:25;;;;;;;;;;;21.50;99.90;;;;;;5057813;28;19966;-75
2022/10/10 09:33:57;;;;;;;;;;;21.70;99.90;;;;;;5074572;28;19939;-75
2022/10/10 09:36:27;;;;;;;;;;;21.80;99.90;;;;;;5057268;28;19909;-76
2022/10/10 09:38:56;;;;;;;;;;;22.00;99.90;;;;;;5073684;28;19958;-71
2022/10/10 09:41:24;;;;;;;;;;;22.10;99.90;;;;;;5071196;28;20584;-69
2022/10/10 09:43:57;;;;;;;;;;;22.40;99.90;;;;;;5074640;28;19915;-67
2022/10/10 09:46:24;;;;;;;;;;;22.50;99.90;;;;;;5074530;28;19909;-71
2022/10/10 09:48:50;;;;;;;;;;;22.70;99.90;;;;;;5079768;28;19912;-71
2022/10/10 09:51:17;;;;;;;;;;;22.90;99.90;;;;;;5074603;28;19999;-71
2022/10/10 09:53:44;;;;;;;;;;;23.00;99.90;;;;;;5057218;28;19915;-72
2022/10/10 09:56:20;;;;;;;;;;;23.20;99.90;;;;;;5075632;28;19959;-70
2022/10/10 09:58:47;;;;;;;;;;;23.30;99.90;;;;;;5071452;28;19916;-70
2022/10/10 10:01:22;;;;;;;;;;;23.30;99.90;;;;;;5074167;28;19944;-72
2022/10/10 10:04:09;;;;;;;;;;;23.30;99.90;;;;;;5075008;28;20327;-72
2022/10/10 10:06:35;;;;;;;;;;;23.10;99.90;;;;;;5073511;28;19916;-72
2022/10/10 10:09:02;;;;;;;;;;;23.10;99.90;;;;;;5078371;28;19908;-74
2022/10/10 10:11:35;;;;;;;;;;;23.10;99.90;;;;;;5076255;28;20190;-73
2022/10/10 10:14:01;;;;;;;;;;;23.20;99.90;;;;;;5074386;28;19999;-72
2022/10/10 10:16:35;;;;;;;;;;;23.20;99.90;;;;;;5074648;28;19976;-69
2022/10/10 10:19:01;;;;;;;;;;;23.20;99.90;;;;;;5073717;28;19919;-69
2022/10/10 10:21:28;;;;;;;;;;;23.10;99.90;;;;;;5073331;28;19932;-70
2022/10/10 10:23:53;;;;;;;;;;;23.10;99.90;;;;;;5071052;28;19919;-70
2022/10/10 10:26:26;;;;;;;;;;;23.10;99.90;;;;;;5078159;28;19909;-70
2022/10/10 10:28:52;;;;;;;;;;;23.10;99.90;;;;;;5075161;28;20306;-71
2022/10/10 10:31:23;;;;;;;;;;;23.10;99.90;;;;;;5073258;28;19980;-70
2022/10/10 10:33:55;;;;;;;;;;;23.20;99.90;;;;;;5074206;28;20429;-70
2022/10/10 10:36:29;;;;;;;;;;;23.50;99.90;;;;;;5072141;28;19955;-70
2022/10/10 10:39:07;;;;;;;;;;;23.60;99.90;;;;;;5067178;28;19916;-71
2022/10/10 10:41:52;;;;;;;;;;;23.60;99.90;;;;;;5076754;28;19913;-71
2022/10/10 10:44:33;;;;;;;;;;;23.80;99.90;;;;;;5068095;28;20281;-71
2022/10/10 10:47:22;;;;;;;;;;;23.90;99.90;;;;;;5074636;28;19999;-75
2022/10/10 10:49:58;;;;;;;;;;;23.80;99.90;;;;;;5061341;28;20370;-73
2022/10/10 10:52:42;;;;;;;;;;;23.70;99.90;;;;;;5071551;28;19928;-73
2022/10/10 10:55:09;;;;;;;;;;;23.70;99.90;;;;;;5054358;28;19916;-74
2022/10/10 10:57:43;;;;;;;;;;;23.60;99.90;;;;;;5072460;28;19917;-74
2022/10/10 11:00:11;;;;;;;;;;;23.60;99.90;;;;;;5072879;28;19979;-74
2022/10/10 11:02:37;;;;;;;;;;;23.80;99.90;;;;;;5056089;28;19939;-74
2022/10/10 11:05:21;;;;;;;;;;;23.80;99.90;;;;;;5073057;28;20528;-74
2022/10/10 11:07:56;;;;;;;;;;;23.60;99.90;;;;;;5086845;28;19916;-73
2022/10/10 11:10:34;;;;;;;;;;;23.60;99.90;;;;;;5077270;28;19913;-73
2022/10/10 11:13:00;;;;;;;;;;;23.50;99.90;;;;;;5058335;28;19984;-74
2022/10/10 11:15:32;;;;;;;;;;;23.30;99.90;;;;;;5076125;28;19951;-74
2022/10/10 11:18:09;;;;;;;;;;;23.10;99.90;;;;;;5078090;28;19920;-73
2022/10/10 11:20:40;;;;;;;;;;;23.00;99.90;;;;;;5073799;28;19931;-74
2022/10/10 11:23:09;;;;;;;;;;;22.80;99.90;;;;;;5067379;28;20332;-74
2022/10/10 11:25:40;;;;;;;;;;;22.70;99.90;;;;;;5078329;28;20004;-73
2022/10/10 11:28:08;;;;;;;;;;;22.50;99.90;;;;;;5074453;28;20329;-73
2022/10/10 11:30:38;;;;;;;;;;;22.50;99.90;;;;;;5072687;28;19993;-73
2022/10/10 11:33:33;;;;;;;;;;;22.50;99.90;;;;;;5071820;28;19920;-74
2022/10/10 11:36:00;;;;;;;;;;;22.60;99.90;;;;;;5056274;28;19923;-73
2022/10/10 11:38:35;;;;;;;;;;;22.70;99.90;;;;;;5070437;28;19989;-73
2022/10/10 11:41:03;;;;;;;;;;;22.60;99.90;;;;;;5076255;28;19952;-73
2022/10/10 11:43:31;;;;;;;;;;;22.50;99.90;;;;;;5079786;28;19912;-73
2022/10/10 11:46:04;;;;;;;;;;;22.50;99.90;;;;;;5073471;28;19921;-73
2022/10/10 11:48:39;;;;;;;;;;;22.40;99.90;;;;;;5076860;28;19912;-73
2022/10/10 11:51:16;;;;;;;;;;;22.40;99.90;;;;;;5072890;28;19920;-72
2022/10/10 11:53:43;;;;;;;;;;;22.40;99.90;;;;;;5058837;28;20308;-73
2022/10/10 11:56:09;;;;;;;;;;;22.50;99.90;;;;;;5073398;28;19924;-73
2022/10/10 11:58:38;;;;;;;;;;;22.50;99.90;;;;;;5071966;28;19921;-73
2022/10/10 12:01:09;;;;;;;;;;;22.40;99.90;;;;;;5074447;28;19929;-73
2022/10/10 12:03:35;;;;;;;;;;;22.40;99.90;;;;;;5067328;28;19917;-72
2022/10/10 12:06:04;;;;;;;;;;;22.40;99.90;;;;;;5073526;28;19909;-73
2022/10/10 12:08:35;;;;;;;;;;;22.30;99.90;;;;;;5075453;28;19909;-73
2022/10/10 12:11:15;;;;;;;;;;;22.30;99.90;;;;;;5076306;28;20381;-73
2022/10/10 12:13:47;;;;;;;;;;;22.30;99.90;;;;;;5075897;28;20007;-74
2022/10/10 12:16:23;;;;;;;;;;;22.30;99.90;;;;;;5071795;28;19909;-73
2022/10/10 12:18:52;;;;;;;;;;;22.30;99.90;;;;;;5038019;28;19908;-74
2022/10/10 12:21:19;;;;;;;;;;;22.40;99.90;;;;;;5056234;28;19908;-75
2022/10/10 12:23:49;;;;;;;;;;;22.50;99.90;;;;;;5073246;28;19942;-73
2022/10/10 12:26:16;;;;;;;;;;;22.50;99.90;;;;;;5076171;28;19912;-73
2022/10/10 12:29:02;;;;;;;;;;;22.50;99.90;;;;;;5076078;28;19909;-73
2022/10/10 12:31:29;;;;;;;;;;;22.50;99.90;;;;;;5075211;28;19944;-73
2022/10/10 12:34:00;;;;;;;;;;;22.60;99.90;;;;;;5091898;28;19912;-73
2022/10/10 12:36:26;;;;;;;;;;;22.50;99.90;;;;;;5076067;28;19923;-73
2022/10/10 12:39:09;;;;;;;;;;;22.50;99.90;;;;;;5091880;28;19908;-72
2022/10/10 12:41:49;;;;;;;;;;;22.50;99.90;;;;;;5076246;28;19915;-73
2022/10/10 12:44:23;;;;;;;;;;;22.50;99.90;;;;;;5076109;28;19913;-73
2022/10/10 12:47:07;;;;;;;;;;;22.50;99.90;;;;;;5075999;28;19962;-72
2022/10/10 12:49:33;;;;;;;;;;;22.60;99.90;;;;;;5064200;28;19923;-73
2022/10/10 12:52:19;;;;;;;;;;;22.70;99.90;;;;;;5073887;28;19909;-74
2022/10/10 12:54:45;;;;;;;;;;;22.60;99.90;;;;;;5078178;28;19962;-73
2022/10/10 12:57:14;;;;;;;;;;;22.50;99.90;;;;;;5076183;28;19947;-73
2022/10/10 12:59:40;;;;;;;;;;;22.50;99.90;;;;;;5069295;28;19955;-76
2022/10/10 13:02:11;;;;;;;;;;;22.40;99.90;;;;;;5096631;28;19961;-73
2022/10/10 13:04:40;;;;;;;;;;;22.30;99.90;;;;;;5087324;28;19955;-75
2022/10/10 13:07:06;;;;;;;;;;;22.20;99.90;;;;;;5072743;28;20003;-73
2022/10/10 13:09:33;;;;;;;;;;;22.20;99.90;;;;;;5074486;28;20005;-73
2022/10/10 13:12:00;;;;;;;;;;;22.20;99.90;;;;;;5056165;28;19947;-74
2022/10/10 13:14:36;;;;;;;;;;;22.20;99.90;;;;;;5074225;28;19912;-74
2022/10/10 13:17:02;;;;;;;;;;;22.20;99.90;;;;;;5056668;28;20266;-74
2022/10/10 13:19:28;;;;;;;;;;;22.10;99.90;;;;;;5073951;28;19923;-74
2022/10/10 13:21:57;;;;;;;;;;;22.20;99.90;;;;;;5057210;28;19931;-74
2022/10/10 13:24:25;;;;;;;;;;;22.20;99.90;;;;;;5074962;28;19912;-73
2022/10/10 13:26:51;;;;;;;;;;;22.10;99.90;;;;;;5057566;28;20650;-74
2022/10/10 13:29:17;;;;;;;;;;;22.20;99.90;;;;;;5056683;28;19964;-73
2022/10/10 13:31:43;;;;;;;;;;;22.10;99.90;;;;;;5074101;28;19912;-73
2022/10/10 13:34:14;;;;;;;;;;;22.10;99.90;;;;;;5071991;28;19913;-74
2022/10/10 13:36:40;;;;;;;;;;;22.10;99.90;;;;;;5074376;28;19999;-73
2022/10/10 13:39:06;;;;;;;;;;;22.10;99.90;;;;;;5056455;28;19970;-73
2022/10/10 13:41:32;;;;;;;;;;;22.10;99.90;;;;;;5073755;28;19917;-74
2022/10/10 13:43:57;;;;;;;;;;;21.90;99.90;;;;;;5073748;28;19919;-74
2022/10/10 13:46:32;;;;;;;;;;;22.00;99.90;;;;;;5073025;28;20007;-73
2022/10/10 13:48:59;;;;;;;;;;;21.90;99.90;;;;;;5054787;28;19992;-73
2022/10/10 13:51:41;;;;;;;;;;;21.90;99.90;;;;;;5073296;28;20427;-73
2022/10/10 13:54:27;;;;;;;;;;;21.90;99.90;;;;;;5073974;28;19913;-74
2022/10/10 13:56:52;;;;;;;;;;;21.90;99.90;;;;;;5055991;28;19909;-74
2022/10/10 13:59:20;;;;;;;;;;;21.90;99.90;;;;;;5071743;28;19923;-74
2022/10/10 14:01:47;;;;;;;;;;;21.80;99.90;;;;;;5053635;28;19913;-73
2022/10/10 14:04:14;;;;;;;;;;;21.70;99.90;;;;;;5073161;28;20443;-73
2022/10/10 14:06:40;;;;;;;;;;;21.70;99.90;;;;;;5072378;28;19912;-73
2022/10/10 14:09:10;;;;;;;;;;;21.80;99.90;;;;;;5073552;28;19912;-75
2022/10/10 14:11:36;;;;;;;;;;;22.00;99.90;;;;;;5072582;28;20278;-73
2022/10/10 14:14:04;;;;;;;;;;;22.00;99.90;;;;;;5071769;28;19991;-73
2022/10/10 14:16:30;;;;;;;;;;;22.00;99.90;;;;;;5052879;28;20395;-73
2022/10/10 14:18:56;;;;;;;;;;;22.10;99.90;;;;;;5072724;28;20003;-73
2022/10/10 14:21:22;;;;;;;;;;;22.10;99.90;;;;;;5054624;28;19941;-74
2022/10/10 14:23:47;;;;;;;;;;;22.20;99.90;;;;;;5073101;28;19921;-73